Fort Qu'Appelle, Canada
Current Conditions -  °F | °C
As of 1:00 PM on Thursday 30 Oct 2014 (Local Time) from CYQR Reporting Station
Overcast Overcast  
Wind Chill: 21°   Ceiling: 1000
Heat Index: 30°   Visibility: 15mi
Dew Point: 25°   Wind: 12mph
Humidity: 80%   Direction: 120°ESE
Pressure: 30.49"   Gusts: NA
Location:  50.77°N, 103.78°W
Report Text: CYQR 301900Z 12010KT 15SM OVC010 M01/M04 A3049 RMK SC8 SLP357
Loading
Personal Weather Stations






























Interactive Weather Map
Tropical Storm Tracking
New forecast layout! Learn more

10-Day Weather Forecast

Advertisements
Track Severe Weather on mobile